ACA690 CYYZ-CYYT
Flight info
| Callsign | ACA690 |
|---|---|
| Flight time | N/A |
| Altitude | 37000 |
| Route | VERDO7 LORKA Q907 MIVAD AVALN5 |
| Aircraft | B38M/M-SDE1FGHILORVWXY/HB1 |
Departure
| Time | 2026-05-04 21:38 |
|---|---|
| Airport | Toronto Pearson International Airport (CYYZ) |
Arrival
| Time | N/A |
|---|---|
| Airport | St. John's International Airport (CYYT) |
| Time | Latitude | Longitude | Altitude | Speed | Heading |
|---|---|---|---|---|---|
| 2026-05-04 21:05 | 43.67914 | -79.61559 | 564 ft | 0 kts | 317° |
| 2026-05-04 21:14 | 43.67912 | -79.61557 | 564 ft | 1 kts | 317° |
| 2026-05-04 21:14 | 43.67899 | -79.61542 | 581 ft | 3 kts | 326° |
| 2026-05-04 21:14 | 43.67882 | -79.61529 | 565 ft | 3 kts | 337° |
| 2026-05-04 21:15 | 43.67863 | -79.61519 | 569 ft | 3 kts | 341° |
| 2026-05-04 21:15 | 43.67847 | -79.61509 | 570 ft | 3 kts | 308° |
| 2026-05-04 21:15 | 43.67841 | -79.61514 | 569 ft | 2 kts | 237° |
| 2026-05-04 21:15 | 43.67838 | -79.61518 | 568 ft | 0 kts | 226° |
| 2026-05-04 21:23 | 43.67837 | -79.61519 | 567 ft | 1 kts | 226° |
| 2026-05-04 21:23 | 43.67831 | -79.61528 | 571 ft | 2 kts | 226° |
| 2026-05-04 21:23 | 43.67820 | -79.61544 | 570 ft | 3 kts | 225° |
| 2026-05-04 21:23 | 43.67803 | -79.61567 | 566 ft | 4 kts | 225° |
| 2026-05-04 21:24 | 43.67782 | -79.61596 | 567 ft | 4 kts | 225° |
| 2026-05-04 21:24 | 43.67760 | -79.61627 | 566 ft | 5 kts | 225° |
| 2026-05-04 21:24 | 43.67729 | -79.61654 | 567 ft | 5 kts | 193° |
| 2026-05-04 21:24 | 43.67693 | -79.61643 | 569 ft | 6 kts | 168° |
| 2026-05-04 21:25 | 43.67656 | -79.61656 | 571 ft | 6 kts | 209° |
| 2026-05-04 21:25 | 43.67625 | -79.61683 | 565 ft | 5 kts | 216° |
| 2026-05-04 21:25 | 43.67604 | -79.61705 | 566 ft | 3 kts | 217° |
| 2026-05-04 21:25 | 43.67592 | -79.61718 | 570 ft | 3 kts | 219° |
| 2026-05-04 21:26 | 43.67562 | -79.61738 | 571 ft | 7 kts | 188° |
| 2026-05-04 21:26 | 43.67500 | -79.61686 | 569 ft | 14 kts | 136° |
| 2026-05-04 21:26 | 43.67423 | -79.61586 | 568 ft | 16 kts | 137° |
| 2026-05-04 21:26 | 43.67338 | -79.61478 | 571 ft | 17 kts | 137° |
| 2026-05-04 21:27 | 43.67248 | -79.61358 | 569 ft | 18 kts | 136° |
| 2026-05-04 21:27 | 43.67163 | -79.61248 | 566 ft | 14 kts | 137° |
| 2026-05-04 21:27 | 43.67171 | -79.61124 | 564 ft | 17 kts | 48° |
| 2026-05-04 21:27 | 43.67257 | -79.60997 | 559 ft | 19 kts | 45° |
| 2026-05-04 21:28 | 43.67349 | -79.60866 | 565 ft | 20 kts | 46° |
| 2026-05-04 21:28 | 43.67426 | -79.60755 | 562 ft | 14 kts | 46° |
| 2026-05-04 21:28 | 43.67492 | -79.60659 | 567 ft | 14 kts | 47° |
| 2026-05-04 21:28 | 43.67559 | -79.60559 | 566 ft | 15 kts | 47° |
| 2026-05-04 21:29 | 43.67630 | -79.60456 | 567 ft | 15 kts | 46° |
| 2026-05-04 21:29 | 43.67703 | -79.60352 | 563 ft | 16 kts | 46° |
| 2026-05-04 21:29 | 43.67783 | -79.60236 | 569 ft | 17 kts | 46° |
| 2026-05-04 21:29 | 43.67862 | -79.60122 | 565 ft | 14 kts | 47° |
| 2026-05-04 21:30 | 43.67933 | -79.60018 | 565 ft | 16 kts | 46° |
| 2026-05-04 21:30 | 43.68006 | -79.59912 | 565 ft | 13 kts | 46° |
| 2026-05-04 21:30 | 43.68014 | -79.59804 | 571 ft | 12 kts | 126° |
| 2026-05-04 21:30 | 43.68010 | -79.59798 | 571 ft | 0 kts | 132° |
| 2026-05-04 21:35 | 43.68009 | -79.59796 | 571 ft | 0 kts | 132° |
| 2026-05-04 21:36 | 43.67999 | -79.59781 | 565 ft | 5 kts | 132° |
| 2026-05-04 21:36 | 43.67955 | -79.59727 | 563 ft | 11 kts | 156° |
| 2026-05-04 21:36 | 43.67885 | -79.59752 | 567 ft | 11 kts | 223° |
| 2026-05-04 21:36 | 43.67827 | -79.59834 | 568 ft | 15 kts | 227° |
| 2026-05-04 21:37 | 43.67650 | -79.60094 | 569 ft | 70 kts | 226° |
| 2026-05-04 21:37 | 43.67155 | -79.60814 | 566 ft | 135 kts | 227° |
| 2026-05-04 21:37 | 43.66396 | -79.61936 | 643 ft | 182 kts | 226° |
| 2026-05-04 21:37 | 43.65469 | -79.63260 | 992 ft | 196 kts | 225° |
| 2026-05-04 21:38 | 43.64512 | -79.64629 | 1967 ft | 193 kts | 225° |
| 2026-05-04 21:38 | 43.63536 | -79.65982 | 2832 ft | 206 kts | 225° |
| 2026-05-04 21:38 | 43.62501 | -79.67410 | 3555 ft | 217 kts | 226° |
| 2026-05-04 21:38 | 43.61402 | -79.68931 | 4308 ft | 229 kts | 226° |
| 2026-05-04 21:39 | 43.60170 | -79.70406 | 4705 ft | 239 kts | 212° |
| 2026-05-04 21:39 | 43.58562 | -79.71012 | 4749 ft | 249 kts | 187° |
| 2026-05-04 21:39 | 43.56820 | -79.70576 | 5335 ft | 262 kts | 165° |
| 2026-05-04 21:39 | 43.55243 | -79.69173 | 6173 ft | 282 kts | 141° |
| 2026-05-04 21:40 | 43.54133 | -79.66856 | 7004 ft | 296 kts | 124° |
| 2026-05-04 21:40 | 43.53029 | -79.64453 | 7788 ft | 297 kts | 130° |
| 2026-05-04 21:40 | 43.51869 | -79.62071 | 8621 ft | 302 kts | 129° |
| 2026-05-04 21:40 | 43.50909 | -79.59461 | 9435 ft | 313 kts | 108° |
| 2026-05-04 21:41 | 43.50732 | -79.56445 | 10150 ft | 324 kts | 83° |
| 2026-05-04 21:41 | 43.51266 | -79.53357 | 10594 ft | 340 kts | 75° |
| 2026-05-04 21:41 | 43.51901 | -79.50122 | 10966 ft | 357 kts | 76° |
| 2026-05-04 21:41 | 43.52551 | -79.46755 | 11438 ft | 370 kts | 76° |
| 2026-05-04 21:42 | 43.53237 | -79.43292 | 12010 ft | 378 kts | 71° |
| 2026-05-04 21:42 | 43.54315 | -79.40032 | 12759 ft | 380 kts | 62° |
| 2026-05-04 21:42 | 43.55531 | -79.36720 | 13438 ft | 385 kts | 63° |
| 2026-05-04 21:42 | 43.56723 | -79.33448 | 14061 ft | 388 kts | 62° |
| 2026-05-04 21:43 | 43.57940 | -79.30102 | 14672 ft | 392 kts | 62° |
| 2026-05-04 21:43 | 43.59161 | -79.26736 | 15267 ft | 395 kts | 62° |
| 2026-05-04 21:43 | 43.60397 | -79.23329 | 15834 ft | 399 kts | 62° |
| 2026-05-04 21:43 | 43.61640 | -79.19893 | 16426 ft | 402 kts | 62° |
| 2026-05-04 21:44 | 43.62892 | -79.16431 | 17001 ft | 405 kts | 62° |
| 2026-05-04 21:44 | 43.64155 | -79.12932 | 17580 ft | 409 kts | 62° |
| 2026-05-04 21:44 | 43.65430 | -79.09399 | 18103 ft | 412 kts | 62° |
| 2026-05-04 21:44 | 43.66708 | -79.05849 | 18602 ft | 415 kts | 61° |
| 2026-05-04 21:45 | 43.67996 | -79.02272 | 19096 ft | 417 kts | 61° |
| 2026-05-04 21:45 | 43.69288 | -78.98673 | 19577 ft | 420 kts | 61° |
| 2026-05-04 21:45 | 43.70590 | -78.95044 | 20047 ft | 423 kts | 60° |
| 2026-05-04 21:45 | 43.71903 | -78.91379 | 20495 ft | 426 kts | 60° |
| 2026-05-04 21:46 | 43.73222 | -78.87696 | 20968 ft | 429 kts | 60° |
| 2026-05-04 21:46 | 43.74544 | -78.83994 | 21420 ft | 431 kts | 60° |
| 2026-05-04 21:46 | 43.75878 | -78.80258 | 21872 ft | 434 kts | 60° |
| 2026-05-04 21:46 | 43.77211 | -78.76492 | 22318 ft | 437 kts | 60° |
| 2026-05-04 21:47 | 43.78525 | -78.72692 | 22780 ft | 439 kts | 60° |
| 2026-05-04 21:47 | 43.79833 | -78.68916 | 23215 ft | 442 kts | 60° |
| 2026-05-04 21:47 | 43.81176 | -78.65037 | 23586 ft | 444 kts | 60° |
| 2026-05-04 21:47 | 43.82499 | -78.61211 | 23957 ft | 446 kts | 60° |
| 2026-05-04 21:48 | 43.83838 | -78.57335 | 24316 ft | 448 kts | 60° |
| 2026-05-04 21:48 | 43.85187 | -78.53423 | 24680 ft | 450 kts | 60° |
| 2026-05-04 21:48 | 43.86537 | -78.49506 | 25003 ft | 453 kts | 60° |
| 2026-05-04 21:48 | 43.87894 | -78.45559 | 25355 ft | 454 kts | 60° |
| 2026-05-04 21:49 | 43.89260 | -78.41582 | 25703 ft | 456 kts | 60° |
| 2026-05-04 21:49 | 43.90623 | -78.37606 | 26035 ft | 458 kts | 60° |
| 2026-05-04 21:49 | 43.91991 | -78.33610 | 26362 ft | 460 kts | 60° |
| 2026-05-04 21:49 | 43.93365 | -78.29591 | 26684 ft | 462 kts | 60° |
| 2026-05-04 21:50 | 43.94746 | -78.25549 | 27006 ft | 464 kts | 60° |
| 2026-05-04 21:50 | 43.96129 | -78.21490 | 27326 ft | 466 kts | 60° |
| 2026-05-04 21:50 | 43.97514 | -78.17420 | 27637 ft | 468 kts | 60° |
| 2026-05-04 21:50 | 43.98905 | -78.13326 | 27938 ft | 470 kts | 60° |
| 2026-05-04 21:51 | 44.00301 | -78.09215 | 28264 ft | 472 kts | 60° |
| 2026-05-04 21:51 | 44.01701 | -78.05082 | 28520 ft | 474 kts | 60° |
| 2026-05-04 21:51 | 44.03091 | -78.00974 | 28811 ft | 476 kts | 60° |
| 2026-05-04 21:51 | 44.04498 | -77.96806 | 29105 ft | 478 kts | 60° |
| 2026-05-04 21:52 | 44.05917 | -77.92603 | 29392 ft | 479 kts | 60° |
| 2026-05-04 21:52 | 44.07327 | -77.88413 | 29730 ft | 480 kts | 60° |
| 2026-05-04 21:52 | 44.08744 | -77.84197 | 29949 ft | 482 kts | 60° |
| 2026-05-04 21:52 | 44.10166 | -77.79963 | 30191 ft | 483 kts | 60° |
| 2026-05-04 21:53 | 44.11587 | -77.75721 | 30417 ft | 485 kts | 60° |
| 2026-05-04 21:53 | 44.13013 | -77.71460 | 30644 ft | 487 kts | 60° |
| 2026-05-04 21:53 | 44.14441 | -77.67187 | 30872 ft | 488 kts | 60° |
| 2026-05-04 21:53 | 44.15874 | -77.62889 | 31095 ft | 490 kts | 60° |
| 2026-05-04 21:54 | 44.17307 | -77.58589 | 31326 ft | 491 kts | 60° |
| 2026-05-04 21:54 | 44.18744 | -77.54269 | 31580 ft | 491 kts | 60° |
| 2026-05-04 21:54 | 44.20180 | -77.49951 | 31880 ft | 491 kts | 60° |
| 2026-05-04 21:54 | 44.21614 | -77.45696 | 32013 ft | 491 kts | 59° |
| 2026-05-04 21:55 | 44.23062 | -77.41406 | 31992 ft | 489 kts | 59° |
| 2026-05-04 21:55 | 44.25975 | -77.32783 | 31998 ft | 489 kts | 59° |
| 2026-05-04 21:56 | 44.28861 | -77.24253 | 32009 ft | 489 kts | 59° |
| 2026-05-04 21:56 | 44.31750 | -77.15666 | 31996 ft | 488 kts | 59° |
| 2026-05-04 21:57 | 44.34623 | -77.07108 | 31991 ft | 487 kts | 59° |
| 2026-05-04 21:57 | 44.37506 | -76.98539 | 31999 ft | 487 kts | 59° |
| 2026-05-04 21:58 | 44.40392 | -76.89976 | 31996 ft | 487 kts | 59° |
| 2026-05-04 21:58 | 44.43285 | -76.81406 | 32017 ft | 487 kts | 59° |
| 2026-05-04 21:59 | 44.46179 | -76.72833 | 32004 ft | 487 kts | 59° |
| 2026-05-04 21:59 | 44.49063 | -76.64262 | 32003 ft | 486 kts | 59° |
| 2026-05-04 22:00 | 44.51949 | -76.55692 | 31993 ft | 487 kts | 59° |
| 2026-05-04 22:00 | 44.54843 | -76.47111 | 32001 ft | 487 kts | 59° |
| 2026-05-04 22:01 | 44.57736 | -76.38543 | 32011 ft | 487 kts | 59° |
| 2026-05-04 22:01 | 44.60646 | -76.29950 | 32005 ft | 488 kts | 59° |
| 2026-05-04 22:02 | 44.63508 | -76.21410 | 31983 ft | 485 kts | 59° |
| 2026-05-04 22:02 | 44.66378 | -76.12836 | 31981 ft | 486 kts | 59° |
| 2026-05-04 22:03 | 44.69260 | -76.04243 | 31985 ft | 486 kts | 59° |
| 2026-05-04 22:03 | 44.72146 | -75.95652 | 32002 ft | 486 kts | 58° |
| 2026-05-04 22:04 | 44.75036 | -75.87065 | 31978 ft | 486 kts | 58° |
| 2026-05-04 22:04 | 44.77920 | -75.78477 | 31981 ft | 485 kts | 58° |
| 2026-05-04 22:05 | 44.80788 | -75.69891 | 31976 ft | 484 kts | 58° |
| 2026-05-04 22:05 | 44.83656 | -75.61316 | 31977 ft | 484 kts | 58° |
| 2026-05-04 22:06 | 44.86050 | -75.54173 | 31991 ft | 485 kts | 58° |
| 2026-05-04 22:06 | 44.88935 | -75.45579 | 31978 ft | 485 kts | 58° |
| 2026-05-04 22:07 | 44.91831 | -75.36974 | 31977 ft | 485 kts | 58° |
| 2026-05-04 22:07 | 44.94710 | -75.28383 | 31980 ft | 484 kts | 58° |
| 2026-05-04 22:08 | 44.97584 | -75.19796 | 31980 ft | 484 kts | 58° |
| 2026-05-04 22:08 | 45.00463 | -75.11209 | 32003 ft | 484 kts | 58° |
| 2026-05-04 22:09 | 45.03344 | -75.02592 | 31982 ft | 485 kts | 58° |
| 2026-05-04 22:09 | 45.06234 | -74.93968 | 31987 ft | 485 kts | 58° |
| 2026-05-04 22:10 | 45.09120 | -74.85348 | 31984 ft | 485 kts | 58° |
| 2026-05-04 22:10 | 45.11949 | -74.76778 | 31972 ft | 482 kts | 58° |
| 2026-05-04 22:11 | 45.14789 | -74.68177 | 31985 ft | 483 kts | 58° |
| 2026-05-04 22:11 | 45.16218 | -74.63861 | 31866 ft | 484 kts | 58° |
| 2026-05-04 22:11 | 45.17653 | -74.59541 | 31699 ft | 483 kts | 58° |
| 2026-05-04 22:12 | 45.20053 | -74.50562 | 31847 ft | 491 kts | 64° |
| 2026-05-04 22:12 | 45.21215 | -74.46010 | 32099 ft | 490 kts | 63° |
| 2026-05-04 22:12 | 45.22398 | -74.41475 | 32397 ft | 489 kts | 63° |
| 2026-05-04 22:12 | 45.23590 | -74.36966 | 32721 ft | 488 kts | 62° |
| 2026-05-04 22:13 | 45.24786 | -74.32465 | 33068 ft | 486 kts | 62° |
| 2026-05-04 22:13 | 45.25976 | -74.27981 | 33365 ft | 485 kts | 62° |
| 2026-05-04 22:13 | 45.27162 | -74.23504 | 33672 ft | 484 kts | 62° |
| 2026-05-04 22:13 | 45.28339 | -74.19050 | 33882 ft | 484 kts | 62° |
| 2026-05-04 22:14 | 45.29521 | -74.14567 | 34052 ft | 485 kts | 62° |
| 2026-05-04 22:14 | 45.30703 | -74.10078 | 34264 ft | 484 kts | 62° |
| 2026-05-04 22:14 | 45.31882 | -74.05596 | 34459 ft | 484 kts | 62° |
| 2026-05-04 22:14 | 45.33058 | -74.01111 | 34657 ft | 484 kts | 63° |
| 2026-05-04 22:15 | 45.34232 | -73.96631 | 34852 ft | 484 kts | 63° |
| 2026-05-04 22:15 | 45.35407 | -73.92137 | 35059 ft | 484 kts | 63° |
| 2026-05-04 22:15 | 45.36559 | -73.87719 | 35264 ft | 484 kts | 63° |
| 2026-05-04 22:15 | 45.37740 | -73.83183 | 35475 ft | 483 kts | 64° |
| 2026-05-04 22:16 | 45.38893 | -73.78750 | 35647 ft | 483 kts | 64° |
| 2026-05-04 22:16 | 45.40057 | -73.74263 | 35817 ft | 483 kts | 64° |
| 2026-05-04 22:16 | 45.41218 | -73.69778 | 35978 ft | 484 kts | 64° |
| 2026-05-04 22:17 | 45.43547 | -73.60759 | 36235 ft | 485 kts | 65° |
| 2026-05-04 22:17 | 45.44709 | -73.56243 | 36392 ft | 485 kts | 65° |
| 2026-05-04 22:17 | 45.45865 | -73.51746 | 36548 ft | 485 kts | 65° |
| 2026-05-04 22:17 | 45.47024 | -73.47227 | 36685 ft | 484 kts | 65° |
| 2026-05-04 22:18 | 45.48179 | -73.42714 | 36709 ft | 485 kts | 65° |
| 2026-05-04 22:18 | 45.50472 | -73.33732 | 36703 ft | 480 kts | 65° |
| 2026-05-04 22:19 | 45.52753 | -73.24756 | 36706 ft | 481 kts | 66° |
| 2026-05-04 22:19 | 45.55026 | -73.15783 | 36712 ft | 481 kts | 66° |
| 2026-05-04 22:20 | 45.57278 | -73.06854 | 36735 ft | 481 kts | 66° |
| 2026-05-04 22:20 | 45.59553 | -72.97798 | 36740 ft | 482 kts | 66° |
| 2026-05-04 22:21 | 45.61796 | -72.88833 | 36740 ft | 483 kts | 66° |
| 2026-05-04 22:21 | 45.64049 | -72.79796 | 36739 ft | 484 kts | 66° |
| 2026-05-04 22:22 | 45.66298 | -72.70739 | 36755 ft | 484 kts | 66° |
| 2026-05-04 22:22 | 45.68540 | -72.61672 | 36745 ft | 483 kts | 66° |
| 2026-05-04 22:23 | 45.70771 | -72.52612 | 36741 ft | 483 kts | 66° |
| 2026-05-04 22:23 | 45.72995 | -72.43545 | 36753 ft | 482 kts | 66° |
| 2026-05-04 22:24 | 45.75208 | -72.34489 | 36751 ft | 482 kts | 66° |
| 2026-05-04 22:24 | 45.77417 | -72.25410 | 36755 ft | 482 kts | 66° |
| 2026-05-04 22:25 | 45.79614 | -72.16348 | 36764 ft | 482 kts | 66° |
| 2026-05-04 22:25 | 45.81803 | -72.07276 | 36766 ft | 482 kts | 66° |
| 2026-05-04 22:26 | 45.83988 | -71.98185 | 36771 ft | 482 kts | 66° |
| 2026-05-04 22:26 | 45.86170 | -71.89076 | 36775 ft | 483 kts | 66° |
| 2026-05-04 22:27 | 45.88327 | -71.80027 | 36759 ft | 483 kts | 67° |
| 2026-05-04 22:27 | 45.90495 | -71.70899 | 36804 ft | 483 kts | 67° |
| 2026-05-04 22:28 | 45.92655 | -71.61765 | 36780 ft | 483 kts | 67° |
| 2026-05-04 22:28 | 45.94809 | -71.52619 | 36779 ft | 483 kts | 67° |
| 2026-05-04 22:29 | 45.96960 | -71.43443 | 36781 ft | 485 kts | 67° |
| 2026-05-04 22:29 | 45.99108 | -71.34248 | 36776 ft | 485 kts | 68° |
| 2026-05-04 22:30 | 46.01247 | -71.25049 | 36774 ft | 485 kts | 68° |
| 2026-05-04 22:30 | 46.03379 | -71.15840 | 36792 ft | 486 kts | 68° |
| 2026-05-04 22:31 | 46.05511 | -71.06596 | 36781 ft | 487 kts | 68° |
| 2026-05-04 22:31 | 46.07639 | -70.97326 | 36774 ft | 488 kts | 68° |
| 2026-05-04 22:32 | 46.09764 | -70.88031 | 36775 ft | 489 kts | 68° |
| 2026-05-04 22:32 | 46.11870 | -70.78782 | 36772 ft | 488 kts | 68° |
| 2026-05-04 22:33 | 46.13981 | -70.69466 | 36770 ft | 488 kts | 68° |
| 2026-05-04 22:33 | 46.16084 | -70.60148 | 36778 ft | 488 kts | 69° |
| 2026-05-04 22:34 | 46.18177 | -70.50832 | 36778 ft | 488 kts | 69° |
| 2026-05-04 22:34 | 46.20263 | -70.41508 | 36776 ft | 489 kts | 69° |
| 2026-05-04 22:35 | 46.22344 | -70.32161 | 36777 ft | 489 kts | 69° |
| 2026-05-04 22:35 | 46.24389 | -70.22781 | 36774 ft | 489 kts | 70° |
| 2026-05-04 22:36 | 46.26395 | -70.13384 | 36792 ft | 489 kts | 70° |
| 2026-05-04 22:36 | 46.28396 | -70.03985 | 36769 ft | 489 kts | 70° |
| 2026-05-04 22:37 | 46.30390 | -69.94571 | 36767 ft | 491 kts | 70° |
| 2026-05-04 22:37 | 46.32386 | -69.85109 | 36770 ft | 492 kts | 70° |
| 2026-05-04 22:38 | 46.34372 | -69.75646 | 36765 ft | 492 kts | 70° |
| 2026-05-04 22:38 | 46.36356 | -69.66154 | 36762 ft | 492 kts | 70° |
| 2026-05-04 22:39 | 46.38315 | -69.56733 | 36770 ft | 492 kts | 70° |
| 2026-05-04 22:39 | 46.40281 | -69.47242 | 36748 ft | 491 kts | 70° |
| 2026-05-04 22:40 | 46.42234 | -69.37757 | 36745 ft | 492 kts | 70° |
| 2026-05-04 22:40 | 46.44186 | -69.28240 | 36748 ft | 492 kts | 70° |
| 2026-05-04 22:41 | 46.46126 | -69.18733 | 36745 ft | 492 kts | 70° |
| 2026-05-04 22:41 | 46.48060 | -69.09210 | 36736 ft | 492 kts | 71° |
| 2026-05-04 22:42 | 46.49985 | -68.99687 | 36742 ft | 492 kts | 71° |
| 2026-05-04 22:42 | 46.51902 | -68.90159 | 36730 ft | 491 kts | 71° |
| 2026-05-04 22:43 | 46.53795 | -68.80701 | 36730 ft | 491 kts | 71° |
| 2026-05-04 22:43 | 46.55692 | -68.71179 | 36725 ft | 491 kts | 71° |
| 2026-05-04 22:44 | 46.57586 | -68.61624 | 36744 ft | 491 kts | 71° |
| 2026-05-04 22:44 | 46.59470 | -68.52078 | 36744 ft | 491 kts | 71° |
| 2026-05-04 22:45 | 46.61344 | -68.42529 | 36749 ft | 491 kts | 72° |
| 2026-05-04 22:45 | 46.64142 | -68.28189 | 36742 ft | 491 kts | 72° |
| 2026-05-04 22:46 | 46.66001 | -68.18603 | 36733 ft | 491 kts | 72° |
| 2026-05-04 22:46 | 46.67850 | -68.09018 | 36730 ft | 492 kts | 72° |
| 2026-05-04 22:47 | 46.69677 | -67.99506 | 36731 ft | 492 kts | 72° |
| 2026-05-04 22:47 | 46.71516 | -67.89896 | 36733 ft | 493 kts | 72° |
| 2026-05-04 22:48 | 46.73350 | -67.80259 | 36722 ft | 493 kts | 72° |
| 2026-05-04 22:48 | 46.75165 | -67.70630 | 36716 ft | 493 kts | 72° |
| 2026-05-04 22:49 | 46.76983 | -67.60968 | 36713 ft | 493 kts | 72° |
| 2026-05-04 22:49 | 46.78778 | -67.51380 | 36721 ft | 493 kts | 72° |
| 2026-05-04 22:50 | 46.80576 | -67.41720 | 36729 ft | 493 kts | 73° |
| 2026-05-04 22:50 | 46.82363 | -67.32080 | 36709 ft | 492 kts | 73° |
| 2026-05-04 22:51 | 46.84142 | -67.22427 | 36716 ft | 492 kts | 73° |
| 2026-05-04 22:51 | 46.85914 | -67.12765 | 36711 ft | 492 kts | 73° |
| 2026-05-04 22:52 | 46.87532 | -67.03046 | 36706 ft | 493 kts | 79° |
| 2026-05-04 22:52 | 46.88729 | -66.93180 | 36700 ft | 494 kts | 78° |
| 2026-05-04 22:53 | 46.89983 | -66.83286 | 36703 ft | 496 kts | 78° |
| 2026-05-04 22:53 | 46.91238 | -66.73370 | 36698 ft | 495 kts | 78° |
| 2026-05-04 22:54 | 46.92275 | -66.65134 | 36686 ft | 495 kts | 78° |
| 2026-05-04 22:54 | 46.93510 | -66.55249 | 36691 ft | 495 kts | 78° |
| 2026-05-04 22:55 | 46.94739 | -66.45339 | 36687 ft | 495 kts | 78° |
| 2026-05-04 22:55 | 46.95959 | -66.35432 | 36679 ft | 494 kts | 78° |
| 2026-05-04 22:56 | 46.97168 | -66.25535 | 36677 ft | 494 kts | 79° |
| 2026-05-04 22:56 | 46.98369 | -66.15631 | 36689 ft | 494 kts | 79° |
| 2026-05-04 22:57 | 46.99562 | -66.05723 | 36666 ft | 493 kts | 79° |
| 2026-05-04 22:57 | 47.00741 | -65.95852 | 36668 ft | 492 kts | 79° |
| 2026-05-04 22:58 | 47.01914 | -65.85956 | 36660 ft | 494 kts | 79° |
| 2026-05-04 22:58 | 47.03082 | -65.76025 | 36657 ft | 494 kts | 79° |
| 2026-05-04 22:59 | 47.04240 | -65.66099 | 36653 ft | 494 kts | 79° |
| 2026-05-04 22:59 | 47.05389 | -65.56176 | 36646 ft | 494 kts | 79° |
| 2026-05-04 23:00 | 47.06531 | -65.46229 | 36656 ft | 494 kts | 79° |
| 2026-05-04 23:00 | 47.07665 | -65.36287 | 36643 ft | 493 kts | 80° |
| 2026-05-04 23:01 | 47.08787 | -65.26359 | 36639 ft | 493 kts | 80° |
| 2026-05-04 23:01 | 47.09901 | -65.16429 | 36645 ft | 493 kts | 80° |
| 2026-05-04 23:02 | 47.11310 | -65.03731 | 36641 ft | 493 kts | 80° |
| 2026-05-04 23:02 | 47.13496 | -64.83858 | 36645 ft | 493 kts | 81° |
| 2026-05-04 23:03 | 47.15628 | -64.63992 | 36647 ft | 491 kts | 81° |
| 2026-05-04 23:03 | 47.17738 | -64.44172 | 36653 ft | 492 kts | 81° |
| 2026-05-04 23:04 | 47.19786 | -64.24430 | 36645 ft | 492 kts | 82° |
| 2026-05-04 23:04 | 47.21816 | -64.04560 | 36649 ft | 491 kts | 81° |
| 2026-05-04 23:05 | 47.23829 | -63.84679 | 36615 ft | 491 kts | 82° |
| 2026-05-04 23:05 | 47.25781 | -63.64814 | 36617 ft | 491 kts | 82° |
| 2026-05-04 23:06 | 47.27716 | -63.44895 | 36632 ft | 491 kts | 82° |
| 2026-05-04 23:06 | 47.29616 | -63.25004 | 36633 ft | 492 kts | 83° |
| 2026-05-04 23:07 | 47.31464 | -63.05039 | 36639 ft | 492 kts | 83° |
| 2026-05-04 23:07 | 47.33296 | -62.85098 | 36633 ft | 492 kts | 83° |
| 2026-05-04 23:08 | 47.35101 | -62.65104 | 36643 ft | 492 kts | 83° |
| 2026-05-04 23:08 | 47.36845 | -62.45093 | 36640 ft | 492 kts | 83° |
| 2026-05-04 23:09 | 47.38581 | -62.25090 | 36642 ft | 493 kts | 83° |
| 2026-05-04 23:09 | 47.40285 | -62.04992 | 36630 ft | 493 kts | 84° |
| 2026-05-04 23:10 | 47.41233 | -61.93547 | 36604 ft | 493 kts | 84° |
| 2026-05-04 23:10 | 47.42062 | -61.83503 | 36552 ft | 493 kts | 84° |
| 2026-05-04 23:11 | 47.42943 | -61.70739 | 36576 ft | 494 kts | 85° |
| 2026-05-04 23:11 | 47.44263 | -61.50576 | 36587 ft | 494 kts | 85° |
| 2026-05-04 23:12 | 47.45540 | -61.30359 | 36592 ft | 494 kts | 86° |
| 2026-05-04 23:12 | 47.46788 | -61.10129 | 36622 ft | 495 kts | 86° |
| 2026-05-04 23:13 | 47.48008 | -60.89995 | 36625 ft | 495 kts | 86° |
| 2026-05-04 23:13 | 47.49175 | -60.69688 | 36626 ft | 498 kts | 86° |
| 2026-05-04 23:14 | 47.50337 | -60.49259 | 36622 ft | 498 kts | 86° |
| 2026-05-04 23:14 | 47.51453 | -60.28840 | 36603 ft | 499 kts | 87° |
| 2026-05-04 23:15 | 47.52524 | -60.08343 | 36614 ft | 499 kts | 87° |
| 2026-05-04 23:15 | 47.53581 | -59.87910 | 36610 ft | 497 kts | 87° |
| 2026-05-04 23:16 | 47.54576 | -59.67537 | 36610 ft | 497 kts | 88° |
| 2026-05-04 23:16 | 47.55535 | -59.47129 | 36621 ft | 497 kts | 87° |
| 2026-05-04 23:17 | 47.56467 | -59.27031 | 36615 ft | 496 kts | 88° |